Reform, Mississippi
Current Conditions -  °F | °C
As of 7:35 PM on Thursday 27 Nov 2014 (Local Time) from KSTF Reporting Station
NA  
Wind Chill: 30°   Ceiling: NA
Heat Index: 30°   Visibility: NA
Dew Point: 30°   Wind: 0mph
Humidity: 100%   Direction: NA
Pressure: 30.48"   Gusts: NA
Location:  33.3679°N, 89.2097°W
Report Text: KSTF 280135Z AUTO 00000KT M01/M01 A3048 RMK AO2 PWINO
Loading
Personal Weather Stations






























Interactive Weather Map New forecast layout! Learn more

10-Day Weather Forecast

Advertisements
Track Severe Weather on mobile